createdAt,value
2023-03-31T00:02:07.292Z,1.83
2023-03-31T00:04:34.843Z,1.80
2023-03-31T00:07:05.870Z,2.33
2023-03-31T00:09:33.358Z,1.92
2023-03-31T00:12:00.661Z,1.95
2023-03-31T00:14:27.951Z,2.15
2023-03-31T00:16:55.385Z,1.50
2023-03-31T00:19:22.716Z,1.83
2023-03-31T00:21:51.487Z,1.83
2023-03-31T00:24:20.328Z,2.00
2023-03-31T00:26:47.611Z,1.70
2023-03-31T00:29:15.136Z,1.50
2023-03-31T00:31:42.480Z,2.00
2023-03-31T00:34:09.823Z,1.80
2023-03-31T00:36:47.181Z,1.52
2023-03-31T00:39:15.286Z,1.75
2023-03-31T00:41:43.989Z,1.95
2023-03-31T00:44:13.827Z,1.85
2023-03-31T00:46:46.530Z,2.25
2023-03-31T00:49:16.085Z,2.17
2023-03-31T00:51:44.134Z,2.30
2023-03-31T00:54:11.572Z,2.03
2023-03-31T00:56:40.871Z,1.70
2023-03-31T00:59:11.862Z,2.03
2023-03-31T01:01:42.731Z,2.13
2023-03-31T01:04:11.511Z,2.42
2023-03-31T01:06:42.181Z,2.35
2023-03-31T01:09:09.841Z,1.88
2023-03-31T01:11:37.371Z,2.35
2023-03-31T01:14:04.703Z,2.45
2023-03-31T01:16:33.891Z,2.15
2023-03-31T01:19:01.264Z,2.10
2023-03-31T01:21:47.143Z,2.20
2023-03-31T01:24:35.737Z,2.35
2023-03-31T01:27:07.608Z,2.17
2023-03-31T01:29:55.177Z,1.98
2023-03-31T01:32:43.552Z,1.95
2023-03-31T01:35:25.824Z,2.70
2023-03-31T01:38:07.234Z,2.72
2023-03-31T01:40:55.644Z,2.35
2023-03-31T01:43:26.079Z,2.28
2023-03-31T01:45:57.464Z,2.55
2023-03-31T01:48:30.092Z,2.53
2023-03-31T01:50:59.001Z,2.22
2023-03-31T01:53:30.886Z,2.85
2023-03-31T01:56:00.677Z,2.47
2023-03-31T01:58:32.596Z,2.65
2023-03-31T02:01:01.865Z,3.05
2023-03-31T02:03:30.897Z,2.35
2023-03-31T02:06:00.833Z,3.28
2023-03-31T02:08:30.365Z,2.50
2023-03-31T02:10:58.457Z,2.55
2023-03-31T02:13:26.705Z,3.22
2023-03-31T02:15:57.871Z,3.67
2023-03-31T02:18:27.426Z,2.85
2023-03-31T02:20:57.277Z,2.75
2023-03-31T02:23:26.593Z,3.05
2023-03-31T02:25:54.643Z,2.72
2023-03-31T02:28:23.022Z,2.72
2023-03-31T02:30:53.602Z,2.72
2023-03-31T02:33:22.343Z,2.67
2023-03-31T02:35:49.778Z,2.38
2023-03-31T02:38:17.105Z,2.38
2023-03-31T02:40:44.437Z,2.65
2023-03-31T02:43:11.693Z,2.50
2023-03-31T02:45:44.510Z,3.28
2023-03-31T02:48:14.136Z,3.03
2023-03-31T02:51:07.336Z,2.85
2023-03-31T02:53:38.864Z,4.05
2023-03-31T02:56:13.953Z,2.75
2023-03-31T02:58:58.976Z,2.45
2023-03-31T03:01:37.817Z,2.50
2023-03-31T03:04:11.123Z,2.47
2023-03-31T03:06:42.993Z,2.70
2023-03-31T03:09:18.305Z,2.80
2023-03-31T03:11:47.846Z,2.78
2023-03-31T03:14:20.995Z,2.28
2023-03-31T03:16:49.859Z,3.00
2023-03-31T03:19:20.093Z,3.05
2023-03-31T03:21:47.579Z,3.33
2023-03-31T03:24:16.897Z,3.55
2023-03-31T03:26:44.677Z,3.33
2023-03-31T03:29:13.138Z,3.10
2023-03-31T03:31:40.418Z,2.45
2023-03-31T03:34:09.466Z,2.45
2023-03-31T03:36:37.307Z,2.28
2023-03-31T03:39:05.142Z,2.20
2023-03-31T03:41:34.161Z,2.58
2023-03-31T03:44:01.574Z,2.67
2023-03-31T03:46:28.977Z,1.80
2023-03-31T03:48:56.612Z,2.05
2023-03-31T03:51:24.079Z,1.52
2023-03-31T03:53:51.371Z,2.33
2023-03-31T03:56:18.686Z,1.92
2023-03-31T03:58:47.318Z,1.45
2023-03-31T04:01:16.075Z,1.60
2023-03-31T04:03:43.370Z,1.50
2023-03-31T04:06:10.704Z,1.85
2023-03-31T04:08:38.352Z,1.73
2023-03-31T04:11:12.559Z,1.55
2023-03-31T04:13:39.852Z,2.00
2023-03-31T04:16:09.088Z,1.20
2023-03-31T04:18:42.480Z,1.38
2023-03-31T04:21:12.118Z,1.50
2023-03-31T04:23:42.652Z,1.30
2023-03-31T04:26:09.990Z,1.77
2023-03-31T04:28:37.943Z,1.30
2023-03-31T04:31:06.771Z,1.48
2023-03-31T04:33:38.632Z,1.60
2023-03-31T04:36:07.796Z,2.08
2023-03-31T04:38:35.490Z,2.15
2023-03-31T04:41:02.884Z,1.60
2023-03-31T04:43:30.206Z,1.77
2023-03-31T04:45:57.588Z,1.88
2023-03-31T04:48:24.979Z,1.60
2023-03-31T04:50:53.622Z,1.90
2023-03-31T04:53:20.915Z,1.52
2023-03-31T04:55:49.387Z,1.75
2023-03-31T04:58:16.704Z,1.35
2023-03-31T05:00:44.014Z,1.85
2023-03-31T05:03:11.442Z,1.58
2023-03-31T05:05:38.807Z,1.67
2023-03-31T05:08:07.508Z,1.70
2023-03-31T05:10:34.814Z,1.52
2023-03-31T05:13:02.330Z,1.20
2023-03-31T05:15:29.721Z,1.02
2023-03-31T05:17:58.858Z,1.40
2023-03-31T05:20:26.239Z,1.20
2023-03-31T05:22:53.512Z,1.58
2023-03-31T05:25:22.442Z,1.42
2023-03-31T05:27:49.948Z,1.20
2023-03-31T05:30:17.824Z,1.45
2023-03-31T05:32:45.206Z,1.60
2023-03-31T05:35:12.613Z,1.08
2023-03-31T05:37:39.925Z,1.10
2023-03-31T05:40:08.073Z,0.95
2023-03-31T05:42:36.836Z,0.88
2023-03-31T05:45:05.249Z,1.45
2023-03-31T05:47:33.310Z,1.50
2023-03-31T05:50:00.714Z,0.90
2023-03-31T05:52:27.976Z,1.40
2023-03-31T05:54:55.270Z,1.10
2023-03-31T05:57:22.616Z,1.10
2023-03-31T05:59:51.432Z,1.00
2023-03-31T06:02:18.816Z,1.40
2023-03-31T06:04:46.537Z,1.25
2023-03-31T06:07:14.919Z,1.23
2023-03-31T06:09:42.244Z,0.95
2023-03-31T06:12:09.597Z,1.20
2023-03-31T06:14:36.977Z,0.90
2023-03-31T06:17:05.702Z,0.75
2023-03-31T06:19:33.196Z,0.73
2023-03-31T06:22:00.604Z,1.00
2023-03-31T06:24:27.999Z,0.80
2023-03-31T06:26:55.477Z,1.23
2023-03-31T06:29:22.944Z,0.90
2023-03-31T06:31:50.355Z,0.70
2023-03-31T06:34:21.229Z,0.70
2023-03-31T06:36:48.858Z,0.70
2023-03-31T06:39:16.235Z,0.57
2023-03-31T06:41:43.691Z,0.65
2023-03-31T06:44:11.270Z,0.80
2023-03-31T06:46:39.096Z,0.68
2023-03-31T06:49:06.620Z,0.60
2023-03-31T06:51:40.563Z,0.80
2023-03-31T06:54:08.049Z,0.57
2023-03-31T06:56:35.519Z,0.70
2023-03-31T06:59:03.180Z,0.68
2023-03-31T07:01:31.885Z,0.60
2023-03-31T07:03:59.708Z,0.95
2023-03-31T07:06:27.155Z,0.75
2023-03-31T07:08:56.056Z,0.80
2023-03-31T07:11:23.439Z,0.80
2023-03-31T07:13:50.859Z,0.80
2023-03-31T07:16:18.321Z,0.77
2023-03-31T07:18:45.749Z,0.68
2023-03-31T07:21:13.243Z,0.60
2023-03-31T07:23:41.172Z,0.80
2023-03-31T07:26:13.776Z,0.47
2023-03-31T07:28:41.462Z,0.57
2023-03-31T07:31:12.519Z,0.77
2023-03-31T07:33:39.789Z,1.05
2023-03-31T07:36:12.480Z,0.90
2023-03-31T07:38:41.796Z,0.82
2023-03-31T07:41:12.811Z,1.00
2023-03-31T07:43:40.441Z,0.90
2023-03-31T07:46:08.377Z,0.98
2023-03-31T07:48:36.034Z,1.15
2023-03-31T07:51:03.446Z,0.82
2023-03-31T07:53:30.848Z,0.90
2023-03-31T07:55:58.177Z,1.02
2023-03-31T07:58:26.945Z,1.00
2023-03-31T08:00:54.238Z,1.10
2023-03-31T08:03:22.114Z,1.35
2023-03-31T08:05:52.511Z,1.48
2023-03-31T08:08:19.892Z,1.30
2023-03-31T08:10:47.179Z,1.05
2023-03-31T08:13:14.559Z,1.45
2023-03-31T08:15:43.204Z,1.58
2023-03-31T08:18:10.619Z,1.23
2023-03-31T08:20:39.233Z,1.15
2023-03-31T08:23:09.007Z,1.42
2023-03-31T08:25:36.320Z,1.55
2023-03-31T08:28:03.684Z,1.90
2023-03-31T08:30:31.221Z,2.08
2023-03-31T08:32:59.862Z,1.10
2023-03-31T08:35:27.474Z,1.58
2023-03-31T08:37:54.773Z,2.00
2023-03-31T08:40:23.737Z,1.58
2023-03-31T08:42:51.706Z,1.40
2023-03-31T08:45:21.634Z,1.75
2023-03-31T08:47:50.060Z,1.92
2023-03-31T08:50:21.232Z,2.08
2023-03-31T08:52:51.124Z,2.25
2023-03-31T08:55:21.292Z,1.73
2023-03-31T08:57:53.101Z,1.80
2023-03-31T09:00:20.687Z,2.30
2023-03-31T09:02:52.800Z,2.35
2023-03-31T09:05:31.755Z,1.42
2023-03-31T09:08:02.353Z,2.30
2023-03-31T09:10:36.946Z,1.90
2023-03-31T09:13:07.166Z,2.50
2023-03-31T09:15:38.459Z,2.47
2023-03-31T09:18:11.961Z,2.20
2023-03-31T09:20:41.537Z,2.15
2023-03-31T09:23:12.380Z,2.17
2023-03-31T09:25:41.322Z,1.77
2023-03-31T09:28:12.197Z,2.08
2023-03-31T09:30:42.108Z,2.53
2023-03-31T09:33:12.422Z,1.73
2023-03-31T09:35:41.303Z,1.88
2023-03-31T09:38:10.872Z,2.22
2023-03-31T09:40:38.253Z,1.88
2023-03-31T09:43:06.701Z,2.05
2023-03-31T09:45:34.854Z,1.75
2023-03-31T09:48:03.188Z,1.77
2023-03-31T09:50:30.790Z,2.15
2023-03-31T09:53:00.700Z,2.17
2023-03-31T09:55:39.529Z,3.00
2023-03-31T09:58:07.833Z,2.75
2023-03-31T10:00:35.351Z,2.13
2023-03-31T10:03:07.231Z,2.58
2023-03-31T10:05:36.556Z,2.45
2023-03-31T10:08:22.386Z,1.98
2023-03-31T10:10:50.474Z,2.50
2023-03-31T10:13:19.700Z,2.53
2023-03-31T10:15:47.225Z,2.40
2023-03-31T10:18:15.447Z,2.50
2023-03-31T10:20:45.098Z,3.00
2023-03-31T10:23:17.176Z,2.38
2023-03-31T10:25:47.086Z,2.22
2023-03-31T10:28:17.270Z,2.70
2023-03-31T10:30:48.501Z,2.40
2023-03-31T10:33:22.637Z,1.88
2023-03-31T10:35:51.542Z,1.60
2023-03-31T10:38:24.951Z,1.75
2023-03-31T10:40:55.644Z,1.83
2023-03-31T10:43:26.252Z,2.03
2023-03-31T10:45:54.853Z,2.40
2023-03-31T10:48:25.277Z,2.40
2023-03-31T10:50:52.983Z,2.13
2023-03-31T10:53:20.632Z,2.03
2023-03-31T10:55:54.174Z,1.67
2023-03-31T10:58:28.931Z,1.92
2023-03-31T11:01:00.882Z,1.73
2023-03-31T11:03:39.872Z,1.77
2023-03-31T11:06:10.088Z,1.92
2023-03-31T11:08:44.387Z,1.40
2023-03-31T11:11:19.470Z,1.17
2023-03-31T11:13:52.040Z,1.70
2023-03-31T11:16:22.863Z,1.40
2023-03-31T11:19:03.344Z,1.95
2023-03-31T11:21:36.508Z,1.30
2023-03-31T11:24:10.402Z,1.45
2023-03-31T11:26:44.747Z,1.73
2023-03-31T11:29:25.410Z,1.92
2023-03-31T11:31:57.398Z,1.63
2023-03-31T11:34:30.739Z,1.70
2023-03-31T11:37:13.104Z,1.80
2023-03-31T11:39:46.082Z,1.95
2023-03-31T11:42:16.299Z,1.70
2023-03-31T11:44:47.377Z,2.10
2023-03-31T11:47:18.595Z,2.38
2023-03-31T11:49:49.107Z,2.45
2023-03-31T11:52:17.977Z,2.08
2023-03-31T11:54:49.216Z,2.80
2023-03-31T11:57:19.868Z,3.40
2023-03-31T11:59:54.075Z,2.75
2023-03-31T12:02:24.551Z,2.55
2023-03-31T12:04:53.079Z,3.40
2023-03-31T12:07:24.065Z,2.88
2023-03-31T12:09:54.468Z,3.33
2023-03-31T12:12:23.815Z,3.17
2023-03-31T12:14:53.380Z,2.78
2023-03-31T12:17:23.220Z,2.40
2023-03-31T12:19:53.304Z,2.33
2023-03-31T12:22:23.129Z,2.03
2023-03-31T12:24:50.495Z,2.10
2023-03-31T12:27:19.663Z,2.28
2023-03-31T12:29:47.890Z,2.20
2023-03-31T12:32:18.798Z,2.35
2023-03-31T12:34:48.218Z,1.75
2023-03-31T12:37:25.654Z,1.55
2023-03-31T12:39:57.384Z,1.90
2023-03-31T12:42:51.832Z,1.90
2023-03-31T12:45:22.273Z,1.98
2023-03-31T12:48:00.959Z,1.90
2023-03-31T12:50:33.949Z,1.88
2023-03-31T12:53:06.549Z,1.45
2023-03-31T12:55:34.796Z,1.50
2023-03-31T12:58:22.091Z,1.23
2023-03-31T13:01:05.179Z,1.80
2023-03-31T13:03:47.976Z,2.72
2023-03-31T13:06:30.288Z,1.77
2023-03-31T13:08:58.131Z,1.60
2023-03-31T13:11:37.163Z,1.85
2023-03-31T13:14:05.617Z,0.98
2023-03-31T13:16:33.900Z,1.92
2023-03-31T13:19:02.682Z,1.77
2023-03-31T13:21:30.015Z,2.03
2023-03-31T13:24:00.730Z,1.88
2023-03-31T13:26:41.175Z,2.50
2023-03-31T13:29:26.359Z,2.20
2023-03-31T13:34:22.774Z,3.13
2023-03-31T13:36:58.838Z,2.20
2023-03-31T13:39:36.166Z,2.03
2023-03-31T13:42:12.555Z,2.03
2023-03-31T13:44:55.474Z,1.38
2023-03-31T13:47:38.262Z,2.33
2023-03-31T13:50:20.542Z,1.58
2023-03-31T13:52:55.905Z,2.42
2023-03-31T13:55:35.708Z,1.90
2023-03-31T13:58:25.526Z,1.58
2023-03-31T14:01:07.865Z,1.20
2023-03-31T14:03:39.216Z,1.30
2023-03-31T14:06:10.666Z,1.30
2023-03-31T14:08:46.525Z,1.65
2023-03-31T14:11:18.413Z,1.35
2023-03-31T14:13:45.751Z,1.77
2023-03-31T14:16:13.603Z,1.10
2023-03-31T14:18:46.966Z,1.10
2023-03-31T14:21:21.114Z,1.08
2023-03-31T14:23:55.978Z,1.48
2023-03-31T14:28:58.019Z,1.02
2023-03-31T14:34:06.410Z,0.80
2023-03-31T14:36:38.729Z,1.30
2023-03-31T14:39:08.327Z,1.27
2023-03-31T14:41:37.794Z,1.60
2023-03-31T14:44:06.306Z,1.20
2023-03-31T14:46:37.862Z,1.60
2023-03-31T14:49:18.264Z,1.35
2023-03-31T14:51:49.123Z,1.15
2023-03-31T14:54:19.141Z,1.17
2023-03-31T14:56:49.514Z,1.30
2023-03-31T14:59:19.646Z,1.27
2023-03-31T15:01:47.816Z,1.15
2023-03-31T15:04:16.496Z,1.63
2023-03-31T15:06:45.629Z,1.20
2023-03-31T15:09:15.925Z,1.48
2023-03-31T15:11:44.608Z,1.77
2023-03-31T15:14:11.958Z,1.75
2023-03-31T15:16:43.097Z,1.60
2023-03-31T15:19:16.135Z,1.50
2023-03-31T15:21:44.058Z,1.50
2023-03-31T15:24:12.780Z,1.80
2023-03-31T15:26:43.271Z,1.88
2023-03-31T15:29:14.319Z,1.33
2023-03-31T15:31:41.959Z,1.30
2023-03-31T15:34:13.619Z,1.30
2023-03-31T15:36:42.110Z,1.50
2023-03-31T15:39:09.591Z,1.00
2023-03-31T15:41:37.734Z,1.10
2023-03-31T15:44:06.326Z,1.35
2023-03-31T15:46:58.963Z,1.83
2023-03-31T15:49:27.087Z,1.02
2023-03-31T15:51:55.742Z,1.20
2023-03-31T15:54:34.856Z,1.10
2023-03-31T15:57:02.987Z,1.05
2023-03-31T15:59:41.586Z,0.95
2023-03-31T16:02:21.144Z,1.20
2023-03-31T16:04:49.710Z,1.13
2023-03-31T16:07:18.782Z,1.70
2023-03-31T16:09:48.946Z,1.20
2023-03-31T16:12:18.290Z,1.40
2023-03-31T16:14:48.768Z,1.35
2023-03-31T16:17:23.388Z,1.30
2023-03-31T16:19:53.484Z,1.60
2023-03-31T16:22:22.588Z,1.38
2023-03-31T16:24:50.332Z,0.85
2023-03-31T16:27:18.600Z,1.15
2023-03-31T16:29:47.332Z,1.13
2023-03-31T16:32:15.525Z,1.30
2023-03-31T16:34:54.233Z,1.50
2023-03-31T16:37:21.577Z,1.02
2023-03-31T16:39:48.878Z,1.38
2023-03-31T16:42:16.311Z,1.20
2023-03-31T16:44:44.406Z,1.00
2023-03-31T16:47:17.545Z,1.30
2023-03-31T16:49:51.136Z,0.90
2023-03-31T16:52:19.784Z,1.33
2023-03-31T16:54:47.151Z,1.20
2023-03-31T16:57:15.233Z,1.70
2023-03-31T16:59:42.585Z,1.60
2023-03-31T17:02:11.529Z,1.17
2023-03-31T17:04:40.137Z,0.90
2023-03-31T17:07:07.485Z,1.23
2023-03-31T17:09:36.101Z,1.42
2023-03-31T17:12:03.533Z,1.45
2023-03-31T17:14:30.855Z,1.15
2023-03-31T17:16:58.301Z,1.30
2023-03-31T17:19:27.065Z,1.00
2023-03-31T17:21:55.010Z,1.13
2023-03-31T17:24:22.994Z,1.60
2023-03-31T17:26:51.863Z,1.48
2023-03-31T17:29:19.247Z,0.90
2023-03-31T17:31:46.795Z,1.40
2023-03-31T17:34:14.271Z,1.27
2023-03-31T17:36:44.009Z,1.13
2023-03-31T17:39:11.476Z,0.93
2023-03-31T17:41:38.777Z,1.50
2023-03-31T17:44:08.700Z,1.10
2023-03-31T17:46:36.385Z,1.30
2023-03-31T17:49:03.712Z,1.30
2023-03-31T17:51:34.315Z,1.13
2023-03-31T17:54:03.099Z,1.00
2023-03-31T17:56:30.439Z,1.00
2023-03-31T17:58:57.990Z,1.20
2023-03-31T18:01:26.909Z,1.52
2023-03-31T18:03:55.584Z,1.40
2023-03-31T18:06:23.091Z,1.75
2023-03-31T18:08:50.379Z,1.40
2023-03-31T18:11:18.036Z,1.08
2023-03-31T18:13:46.089Z,1.33
2023-03-31T18:16:14.231Z,1.58
2023-03-31T18:18:43.746Z,1.20
2023-03-31T18:21:12.914Z,1.40
2023-03-31T18:23:40.787Z,1.45
2023-03-31T18:26:08.941Z,1.30
2023-03-31T18:28:36.316Z,0.80
2023-03-31T18:31:04.202Z,1.00
2023-03-31T18:33:31.767Z,1.30
2023-03-31T18:36:00.571Z,1.55
2023-03-31T18:38:28.815Z,1.25
2023-03-31T18:40:56.274Z,0.90
2023-03-31T18:43:24.985Z,1.20
2023-03-31T18:45:53.594Z,1.17
2023-03-31T18:48:21.853Z,1.30
2023-03-31T18:50:49.729Z,1.45
2023-03-31T18:53:19.002Z,1.52
2023-03-31T18:55:49.539Z,2.50
2023-03-31T18:58:17.301Z,1.67
2023-03-31T19:00:45.148Z,1.80
2023-03-31T19:03:13.547Z,1.58
2023-03-31T19:05:41.030Z,1.20
2023-03-31T19:08:08.401Z,1.50
2023-03-31T19:10:38.039Z,1.20
2023-03-31T19:13:05.526Z,1.25
2023-03-31T19:15:33.208Z,0.95
2023-03-31T19:18:00.633Z,1.30
2023-03-31T19:20:28.009Z,1.33
2023-03-31T19:22:55.842Z,1.10
2023-03-31T19:25:24.054Z,0.75
2023-03-31T19:27:52.795Z,0.90
2023-03-31T19:30:20.934Z,1.17
2023-03-31T19:32:48.892Z,1.25
2023-03-31T19:35:16.443Z,0.80
2023-03-31T19:37:44.555Z,1.38
2023-03-31T19:40:12.924Z,1.40
2023-03-31T19:42:41.878Z,1.10
2023-03-31T19:45:11.392Z,0.90
2023-03-31T19:47:38.859Z,1.00
2023-03-31T19:50:07.167Z,0.73
2023-03-31T19:52:34.471Z,0.95
2023-03-31T19:55:01.787Z,1.05
2023-03-31T19:57:29.292Z,1.05
2023-03-31T19:59:56.592Z,0.85
2023-03-31T20:02:26.361Z,1.83
2023-03-31T20:04:53.920Z,1.20
2023-03-31T20:07:21.280Z,1.15
2023-03-31T20:09:48.576Z,1.60
2023-03-31T20:12:15.857Z,1.50
2023-03-31T20:14:43.489Z,0.90
2023-03-31T20:17:12.646Z,1.33
2023-03-31T20:19:41.304Z,1.05
2023-03-31T20:22:09.041Z,1.20
2023-03-31T20:24:37.368Z,1.05
2023-03-31T20:27:04.862Z,1.42
2023-03-31T20:29:32.163Z,0.82
2023-03-31T20:31:59.576Z,1.30
2023-03-31T20:34:27.495Z,1.23
2023-03-31T20:36:57.090Z,0.75
2023-03-31T20:39:24.423Z,1.10
2023-03-31T20:41:51.937Z,1.35
2023-03-31T20:44:19.352Z,1.70
2023-03-31T20:46:47.474Z,1.50
2023-03-31T20:49:14.847Z,1.70
2023-03-31T20:51:42.463Z,1.88
2023-03-31T20:54:11.810Z,1.73
2023-03-31T20:56:40.315Z,1.48
2023-03-31T20:59:08.765Z,1.85
2023-03-31T21:01:37.266Z,1.77
2023-03-31T21:04:05.627Z,1.05
2023-03-31T21:06:36.912Z,1.42
2023-03-31T21:09:04.285Z,1.52
2023-03-31T21:11:32.977Z,1.40
2023-03-31T21:14:00.546Z,1.35
2023-03-31T21:16:27.994Z,1.75
2023-03-31T21:18:55.807Z,0.77
2023-03-31T21:21:24.592Z,0.85
2023-03-31T21:23:52.225Z,1.20
2023-03-31T21:26:19.896Z,1.50
2023-03-31T21:28:50.341Z,1.00
2023-03-31T21:31:18.842Z,1.30
2023-03-31T21:33:47.340Z,1.10
2023-03-31T21:36:16.171Z,1.27
2023-03-31T21:38:43.581Z,1.27
2023-03-31T21:41:11.992Z,1.80
2023-03-31T21:43:39.567Z,0.90
2023-03-31T21:46:08.821Z,0.95
2023-03-31T21:48:36.992Z,0.77
2023-03-31T21:51:04.543Z,1.02
2023-03-31T21:53:32.164Z,0.80
2023-03-31T21:55:59.703Z,1.10
2023-03-31T21:58:28.661Z,0.75
2023-03-31T22:00:56.212Z,1.02
2023-03-31T22:03:28.910Z,0.88
2023-03-31T22:05:56.551Z,0.98
2023-03-31T22:08:24.108Z,1.02
2023-03-31T22:10:52.975Z,1.02
2023-03-31T22:13:21.057Z,0.88
2023-03-31T22:15:48.438Z,1.38
2023-03-31T22:18:17.791Z,0.90
2023-03-31T22:20:47.824Z,0.77
2023-03-31T22:23:15.815Z,1.02
2023-03-31T22:25:43.355Z,0.95
2023-03-31T22:28:10.695Z,0.63
2023-03-31T22:30:38.016Z,0.55
2023-03-31T22:33:05.408Z,1.00
2023-03-31T22:35:32.958Z,0.98
2023-03-31T22:38:02.533Z,1.00
2023-03-31T22:40:30.149Z,0.60
2023-03-31T22:42:58.373Z,0.70
2023-03-31T22:45:25.867Z,1.30
2023-03-31T22:47:53.228Z,0.70
2023-03-31T22:50:20.971Z,1.17
2023-03-31T22:52:48.358Z,0.50
2023-03-31T22:55:17.319Z,0.68
2023-03-31T22:57:44.763Z,1.00
2023-03-31T23:00:12.634Z,0.93
2023-03-31T23:02:40.096Z,0.80
2023-03-31T23:05:07.884Z,0.70
2023-03-31T23:07:35.187Z,0.82
2023-03-31T23:10:03.002Z,0.80
2023-03-31T23:12:31.710Z,0.70
2023-03-31T23:14:59.068Z,1.08
2023-03-31T23:17:26.450Z,0.70
2023-03-31T23:19:53.792Z,0.60
2023-03-31T23:22:21.580Z,0.60
2023-03-31T23:24:49.489Z,0.73
2023-03-31T23:27:16.817Z,0.60
2023-03-31T23:29:45.935Z,0.63
2023-03-31T23:32:13.358Z,0.93
2023-03-31T23:34:41.738Z,0.70
2023-03-31T23:37:09.630Z,0.73
2023-03-31T23:39:38.634Z,0.70
2023-03-31T23:42:06.763Z,0.55
2023-03-31T23:44:34.237Z,0.63
2023-03-31T23:47:02.981Z,0.50
2023-03-31T23:49:30.393Z,0.82
2023-03-31T23:51:57.746Z,0.63
2023-03-31T23:54:25.622Z,0.32
2023-03-31T23:56:52.946Z,0.80
2023-03-31T23:59:20.395Z,0.70
